Time,TemperatureF,DewpointF,PressureIn,WindDirection,WindDirectionDegrees,WindSpeedMPH,WindSpeedGustMPH,Humidity,HourlyPrecipIn,Conditions,Clouds,dailyrainin,SoftwareType,DateUTC
2013-03-21 00:00:00,25.6,19.7,29.80,ESE,104,0.0,0.0,78,0.00,,OVC010,0.00,VWS V14.01,2013-03-21 04:00:00,
2013-03-21 00:01:00,25.6,19.7,29.80,ESE,104,0.0,0.0,78,0.00,,CLR,0.00,VWS V14.01,2013-03-21 04:01:00,
2013-03-21 00:10:00,25.4,19.5,29.80,ESE,105,0.0,0.0,78,0.00,,FEW100,0.00,VWS V14.01,2013-03-21 04:10:00,
2013-03-21 00:20:00,25.4,19.8,29.80,ESE,105,0.0,0.0,79,0.00,,FEW100,0.00,VWS V14.01,2013-03-21 04:20:00,
2013-03-21 00:30:00,25.4,19.8,29.80,ESE,104,0.0,0.0,79,0.00,,FEW100,0.00,VWS V14.01,2013-03-21 04:30:00,
2013-03-21 00:40:00,24.8,19.2,29.81,ESE,105,0.0,0.0,79,0.00,,FEW100,0.00,VWS V14.01,2013-03-21 04:40:00,
2013-03-21 00:50:00,24.9,19.6,29.81,ESE,105,0.0,0.0,80,0.00,,FEW100,0.00,VWS V14.01,2013-03-21 04:50:00,
2013-03-21 01:00:00,25.0,19.7,29.81,East,101,0.0,0.0,80,0.00,,FEW100,0.00,VWS V14.01,2013-03-21 05:00:00,
2013-03-21 01:10:00,24.9,19.6,29.81,East,101,0.0,0.0,80,0.00,,FEW080,0.00,VWS V14.01,2013-03-21 05:10:00,
2013-03-21 01:20:00,24.6,19.6,29.81,East,101,0.0,0.0,81,0.00,,FEW080,0.00,VWS V14.01,2013-03-21 05:20:00,
2013-03-21 01:30:00,24.5,19.5,29.81,East,101,0.0,0.0,81,0.00,,FEW080,0.00,VWS V14.01,2013-03-21 05:30:00,
2013-03-21 01:40:00,24.4,19.4,29.81,East,101,0.0,0.0,81,0.00,,FEW080,0.00,VWS V14.01,2013-03-21 05:40:00,
2013-03-21 01:50:00,23.9,18.9,29.81,East,101,0.0,0.0,81,0.00,,FEW080,0.00,VWS V14.01,2013-03-21 05:50:00,
2013-03-21 02:00:00,23.5,19.1,29.81,East,101,0.0,0.0,83,0.00,,FEW080,0.00,VWS V14.01,2013-03-21 06:00:00,
2013-03-21 02:10:00,23.2,18.8,29.80,East,101,0.0,0.0,83,0.00,,BKN220,0.00,VWS V14.01,2013-03-21 06:10:00,
2013-03-21 02:20:00,23.0,18.9,29.80,East,101,0.0,0.0,84,0.00,,BKN220,0.00,VWS V14.01,2013-03-21 06:20:00,
2013-03-21 02:30:00,22.8,18.4,29.80,East,101,0.0,0.0,83,0.00,,BKN220,0.00,VWS V14.01,2013-03-21 06:30:00,
2013-03-21 02:40:00,22.6,18.5,29.80,East,101,0.0,0.0,84,0.00,,BKN220,0.00,VWS V14.01,2013-03-21 06:40:00,
2013-03-21 02:50:00,22.5,18.7,29.80,ESE,102,0.0,0.0,85,0.00,,BKN220,0.00,VWS V14.01,2013-03-21 06:50:00,
2013-03-21 03:00:00,22.3,18.5,29.80,East,101,0.0,0.0,85,0.00,,BKN220,0.00,VWS V14.01,2013-03-21 07:00:00,
2013-03-21 03:10:00,22.3,18.8,29.79,East,101,0.0,0.0,86,0.00,,OVC095,0.00,VWS V14.01,2013-03-21 07:10:00,
2013-03-21 03:20:00,21.9,18.4,29.79,SE,138,0.0,0.0,86,0.00,,OVC095,0.00,VWS V14.01,2013-03-21 07:20:00,
2013-03-21 03:30:00,21.6,18.3,29.78,SE,137,0.0,0.0,87,0.00,,OVC095,0.00,VWS V14.01,2013-03-21 07:30:00,
2013-03-21 03:40:00,21.4,18.1,29.78,SE,136,0.0,0.0,87,0.00,,OVC095,0.00,VWS V14.01,2013-03-21 07:40:00,
2013-03-21 03:50:00,21.5,18.5,29.78,SE,137,0.0,0.0,88,0.00,,OVC095,0.00,VWS V14.01,2013-03-21 07:50:00,
2013-03-21 04:00:00,21.6,18.6,29.78,SE,138,0.0,0.0,88,0.00,,OVC095,0.00,VWS V14.01,2013-03-21 08:00:00,
2013-03-21 04:10:00,21.6,18.6,29.77,SE,138,0.0,0.0,88,0.00,,BKN220,0.00,VWS V14.01,2013-03-21 08:10:00,
2013-03-21 04:20:00,21.5,18.5,29.77,SE,138,0.0,0.0,88,0.00,,BKN220,0.00,VWS V14.01,2013-03-21 08:20:00,
2013-03-21 04:30:00,21.6,18.9,29.77,SE,138,0.0,0.0,89,0.00,,BKN220,0.00,VWS V14.01,2013-03-21 08:30:00,
2013-03-21 04:40:00,21.7,19.0,29.77,SE,138,0.0,0.0,89,0.00,,BKN220,0.00,VWS V14.01,2013-03-21 08:40:00,
2013-03-21 04:50:00,21.6,18.6,29.77,SE,138,0.0,0.0,88,0.00,,BKN220,0.00,VWS V14.01,2013-03-21 08:50:00,
2013-03-21 05:00:00,21.5,18.8,29.77,SE,138,0.0,0.0,89,0.00,,BKN220,0.00,VWS V14.01,2013-03-21 09:00:00,
2013-03-21 05:10:00,21.5,18.8,29.76,SE,138,0.0,0.0,89,0.00,,BKN220,0.00,VWS V14.01,2013-03-21 09:10:00,
2013-03-21 05:20:00,21.5,19.0,29.76,SE,138,0.0,0.0,90,0.00,,BKN220,0.00,VWS V14.01,2013-03-21 09:20:00,
2013-03-21 05:30:00,21.6,19.1,29.76,SE,138,0.0,0.0,90,0.00,,BKN220,0.00,VWS V14.01,2013-03-21 09:30:00,
2013-03-21 05:40:00,21.6,19.1,29.77,SE,138,0.0,0.0,90,0.00,,BKN220,0.00,VWS V14.01,2013-03-21 09:40:00,
2013-03-21 05:50:00,21.6,19.1,29.77,SE,138,0.0,0.0,90,0.00,,BKN220,0.00,VWS V14.01,2013-03-21 09:50:00,
2013-03-21 06:00:00,21.5,19.0,29.77,SE,138,0.0,0.0,90,0.00,,BKN220,0.00,VWS V14.01,2013-03-21 10:00:00,
2013-03-21 06:10:00,21.7,19.2,29.76,SE,138,0.0,0.0,90,0.00,,BKN200,0.00,VWS V14.01,2013-03-21 10:10:00,
2013-03-21 06:20:00,21.7,19.2,29.77,SE,138,0.0,0.0,90,0.00,,BKN200,0.00,VWS V14.01,2013-03-21 10:20:00,
2013-03-21 06:30:00,21.5,19.0,29.77,SE,138,0.0,0.0,90,0.00,,BKN200,0.00,VWS V14.01,2013-03-21 10:30:00,
2013-03-21 06:40:00,21.3,19.1,29.77,SE,138,0.0,0.0,91,0.00,,BKN200,0.00,VWS V14.01,2013-03-21 10:40:00,
2013-03-21 06:50:00,21.3,19.1,29.77,SE,139,0.0,0.0,91,0.00,,BKN200,0.00,VWS V14.01,2013-03-21 10:50:00,
2013-03-21 07:00:00,21.3,19.1,29.77,SE,138,0.0,0.0,91,0.00,,BKN200,0.00,VWS V14.01,2013-03-21 11:00:00,
2013-03-21 07:10:00,21.6,19.4,29.77,SE,138,0.0,0.0,91,0.00,,BKN200,0.00,VWS V14.01,2013-03-21 11:10:00,
2013-03-21 07:20:00,21.9,19.7,29.77,SE,138,0.0,0.0,91,0.00,,BKN200,0.00,VWS V14.01,2013-03-21 11:20:00,
2013-03-21 07:30:00,22.1,19.9,29.77,SE,138,0.0,0.0,91,0.00,,BKN200,0.00,VWS V14.01,2013-03-21 11:30:00,
2013-03-21 07:40:00,22.4,20.2,29.77,SE,138,0.0,0.0,91,0.00,,BKN200,0.00,VWS V14.01,2013-03-21 11:40:00,
2013-03-21 07:50:00,22.9,20.4,29.77,SE,139,0.0,0.0,90,0.00,,BKN200,0.00,VWS V14.01,2013-03-21 11:50:00,
2013-03-21 08:00:00,23.4,20.6,29.77,SE,139,0.0,0.0,89,0.00,,BKN200,0.00,VWS V14.01,2013-03-21 12:00:00,
2013-03-21 08:10:00,24.1,20.8,29.77,South,172,0.0,0.0,87,0.00,,OVC090,0.00,VWS V14.01,2013-03-21 12:10:00,
2013-03-21 08:20:00,24.7,20.8,29.77,WSW,240,0.0,0.0,85,0.00,,OVC090,0.00,VWS V14.01,2013-03-21 12:20:00,
2013-03-21 08:30:00,25.3,20.6,29.77,WSW,237,0.0,0.0,82,0.00,,OVC090,0.00,VWS V14.01,2013-03-21 12:30:00,
2013-03-21 08:40:00,25.9,20.0,29.76,WSW,238,0.0,0.0,78,0.00,,OVC090,0.00,VWS V14.01,2013-03-21 12:40:00,
2013-03-21 08:50:00,26.9,19.1,29.76,WSW,248,0.0,0.0,72,0.00,,OVC090,0.00,VWS V14.01,2013-03-21 12:50:00,
2013-03-21 09:00:00,26.7,17.6,29.75,WNW,294,2.0,4.0,68,0.00,,OVC090,0.00,VWS V14.01,2013-03-21 13:00:00,
2013-03-21 09:10:00,27.2,18.0,29.75,ENE,73,0.0,2.0,68,0.00,,OVC080,0.00,VWS V14.01,2013-03-21 13:10:00,
2013-03-21 09:20:00,27.9,17.0,29.75,West,270,1.0,4.0,63,0.00,,OVC080,0.00,VWS V14.01,2013-03-21 13:20:00,
2013-03-21 09:30:00,28.3,17.0,29.75,NNW,340,0.0,4.0,62,0.00,,OVC080,0.00,VWS V14.01,2013-03-21 13:30:00,
2013-03-21 09:40:00,28.9,16.8,29.75,NW,314,1.0,3.0,60,0.00,,OVC080,0.00,VWS V14.01,2013-03-21 13:40:00,
2013-03-21 09:50:00,29.5,17.0,29.74,WNW,300,1.0,2.0,59,0.00,,OVC080,0.00,VWS V14.01,2013-03-21 13:50:00,
2013-03-21 10:00:00,29.3,15.6,29.73,WNW,302,4.0,4.0,56,0.00,,OVC080,0.00,VWS V14.01,2013-03-21 14:00:00,
2013-03-21 10:10:00,29.3,15.1,29.73,NNW,328,2.0,6.0,55,0.00,,BKN080,0.00,VWS V14.01,2013-03-21 14:10:00,
2013-03-21 10:20:00,29.6,15.0,29.73,NW,316,0.0,6.0,54,0.00,,BKN080,0.00,VWS V14.01,2013-03-21 14:20:00,
2013-03-21 10:30:00,29.6,13.7,29.73,WNW,303,2.0,7.0,51,0.00,,BKN080,0.00,VWS V14.01,2013-03-21 14:30:00,
2013-03-21 10:40:00,30.4,14.4,29.72,WNW,303,3.0,5.0,51,0.00,,BKN080,0.00,VWS V14.01,2013-03-21 14:40:00,
2013-03-21 10:50:00,30.8,13.9,29.72,NW,318,4.0,6.0,49,0.00,,BKN080,0.00,VWS V14.01,2013-03-21 14:50:00,
2013-03-21 11:00:00,31.5,13.6,29.72,NE,56,1.0,6.0,47,0.00,,BKN080,0.00,VWS V14.01,2013-03-21 15:00:00,
2013-03-21 11:10:00,31.7,14.3,29.72,NE,46,1.0,5.0,48,0.00,,SCT075,0.00,VWS V14.01,2013-03-21 15:10:00,
2013-03-21 11:20:00,32.5,14.5,29.72,NW,319,2.0,4.0,47,0.00,,SCT075,0.00,VWS V14.01,2013-03-21 15:20:00,
2013-03-21 11:30:00,32.7,15.7,29.71,NNW,332,1.0,4.0,49,0.00,,SCT075,0.00,VWS V14.01,2013-03-21 15:30:00,
2013-03-21 11:40:00,32.6,13.1,29.71,NW,305,3.0,6.0,44,0.00,,SCT075,0.00,VWS V14.01,2013-03-21 15:40:00,
2013-03-21 11:50:00,32.5,13.5,29.71,WNW,295,0.0,5.0,45,0.00,,SCT075,0.00,VWS V14.01,2013-03-21 15:50:00,
2013-03-21 12:00:00,34.1,14.5,29.71,NE,44,0.0,2.0,44,0.00,,OVC010,0.00,VWS V14.01,2013-03-21 16:00:00,
2013-03-21 12:01:00,34.1,14.5,29.71,NE,44,0.0,2.0,44,0.00,,SCT075,0.00,VWS V14.01,2013-03-21 16:01:00,
2013-03-21 12:10:00,34.1,13.4,29.70,WSW,257,0.0,4.0,42,0.00,,OVC070,0.00,VWS V14.01,2013-03-21 16:10:00,
2013-03-21 12:20:00,35.1,15.4,29.70,WNW,295,1.0,3.0,44,0.00,,OVC070,0.00,VWS V14.01,2013-03-21 16:20:00,
2013-03-21 12:30:00,33.9,12.7,29.70,WNW,288,1.0,4.0,41,0.00,,OVC010,0.00,VWS V14.01,2013-03-21 16:30:00,
2013-03-21 12:31:00,33.9,12.7,29.70,WNW,288,1.0,4.0,41,0.00,,OVC070,0.00,VWS V14.01,2013-03-21 16:31:00,
2013-03-21 12:40:00,34.9,13.6,29.69,WSW,255,2.0,5.0,41,0.00,,OVC070,0.00,VWS V14.01,2013-03-21 16:40:00,
2013-03-21 12:50:00,34.9,13.6,29.68,WNW,283,2.0,8.0,41,0.00,,OVC070,0.00,VWS V14.01,2013-03-21 16:50:00,
2013-03-21 13:00:00,35.9,15.6,29.67,NE,44,1.0,5.0,43,0.00,,OVC010,0.00,VWS V14.01,2013-03-21 17:00:00,
2013-03-21 13:10:00,36.4,14.4,29.67,SW,234,0.0,4.0,40,0.00,,BKN065,0.00,VWS V14.01,2013-03-21 17:10:00,
2013-03-21 13:20:00,36.9,15.4,29.66,NE,56,1.0,6.0,41,0.00,,BKN065,0.00,VWS V14.01,2013-03-21 17:20:00,
2013-03-21 13:30:00,36.2,13.6,29.66,ESE,122,0.0,3.0,39,0.00,,OVC010,0.00,VWS V14.01,2013-03-21 17:30:00,
2013-03-21 13:31:00,36.2,13.6,29.66,ESE,122,0.0,3.0,39,0.00,,BKN065,0.00,VWS V14.01,2013-03-21 17:31:00,
2013-03-21 13:40:00,37.4,14.1,29.65,SW,236,2.0,4.0,38,0.00,,BKN065,0.00,VWS V14.01,2013-03-21 17:40:00,
2013-03-21 13:50:00,36.7,15.2,29.65,NNE,29,2.0,6.0,41,0.00,,BKN065,0.00,VWS V14.01,2013-03-21 17:50:00,
2013-03-21 14:00:00,36.6,14.0,29.64,WNW,294,5.0,5.0,39,0.01,,BKN065,0.01,VWS V14.01,2013-03-21 18:00:00,
2013-03-21 14:10:00,36.4,13.2,29.64,West,281,1.0,4.0,38,0.01,,BKN250,0.01,VWS V14.01,2013-03-21 18:10:00,
2013-03-21 14:20:00,36.9,14.9,29.64,NW,325,5.0,8.0,40,0.01,,BKN250,0.01,VWS V14.01,2013-03-21 18:20:00,
2013-03-21 14:30:00,37.3,15.8,29.63,NE,43,1.0,6.0,41,0.02,,BKN250,0.02,VWS V14.01,2013-03-21 18:30:00,
2013-03-21 14:40:00,37.9,15.2,29.62,WNW,303,2.0,3.0,39,0.02,,BKN250,0.02,VWS V14.01,2013-03-21 18:40:00,
2013-03-21 14:50:00,37.4,14.1,29.62,WNW,297,3.0,6.0,38,0.02,,BKN250,0.02,VWS V14.01,2013-03-21 18:50:00,
2013-03-21 15:00:00,36.6,13.4,29.62,NNW,327,6.0,7.0,38,0.03,,OVC010,0.03,VWS V14.01,2013-03-21 19:00:00,
2013-03-21 15:01:00,36.6,13.4,29.62,NNW,327,6.0,7.0,38,0.03,,BKN250,0.03,VWS V14.01,2013-03-21 19:01:00,
2013-03-21 15:10:00,37.0,14.9,29.62,West,269,1.0,5.0,40,0.02,,OVC065,0.03,VWS V14.01,2013-03-21 19:10:00,
2013-03-21 15:20:00,36.9,13.1,29.61,WNW,290,3.0,7.0,37,0.02,,OVC065,0.03,VWS V14.01,2013-03-21 19:20:00,
2013-03-21 15:30:00,37.5,15.4,29.61,West,277,0.0,4.0,40,0.02,,OVC065,0.03,VWS V14.01,2013-03-21 19:30:00,
2013-03-21 15:40:00,36.3,13.1,29.62,WNW,283,2.0,7.0,38,0.01,,OVC065,0.03,VWS V14.01,2013-03-21 19:40:00,
2013-03-21 15:50:00,35.7,14.3,29.62,NW,304,1.0,8.0,41,0.02,,OVC065,0.04,VWS V14.01,2013-03-21 19:50:00,
2013-03-21 16:00:00,35.3,14.0,29.61,West,274,1.0,8.0,41,0.02,,OVC010,0.04,VWS V14.01,2013-03-21 20:00:00,
2013-03-21 16:01:00,35.3,14.0,29.61,West,274,1.0,8.0,41,0.02,,OVC065,0.04,VWS V14.01,2013-03-21 20:01:00,
2013-03-21 16:10:00,35.5,13.6,29.61,WNW,302,2.0,5.0,40,0.01,,OVC250,0.04,VWS V14.01,2013-03-21 20:10:00,
2013-03-21 16:20:00,35.5,13.0,29.61,NW,315,4.0,8.0,39,0.01,,OVC250,0.04,VWS V14.01,2013-03-21 20:20:00,
2013-03-21 16:30:00,35.9,13.4,29.61,WSW,250,1.0,7.0,39,0.01,,OVC250,0.04,VWS V14.01,2013-03-21 20:30:00,
2013-03-21 16:40:00,35.9,11.6,29.61,West,273,1.0,6.0,36,0.01,,OVC250,0.04,VWS V14.01,2013-03-21 20:40:00,
2013-03-21 16:50:00,35.5,13.0,29.61,West,271,3.0,8.0,39,0.01,,OVC250,0.04,VWS V14.01,2013-03-21 20:50:00,
2013-03-21 17:00:00,35.2,13.3,29.61,NNW,336,0.0,8.0,40,0.00,,OVC250,0.04,VWS V14.01,2013-03-21 21:00:00,
2013-03-21 17:10:00,35.4,11.1,29.60,WNW,283,2.0,7.0,36,0.00,,BKN250,0.04,VWS V14.01,2013-03-21 21:10:00,
2013-03-21 17:20:00,35.2,10.9,29.60,NNW,329,5.0,5.0,36,0.00,,BKN250,0.04,VWS V14.01,2013-03-21 21:20:00,
2013-03-21 17:30:00,35.5,12.4,29.60,WNW,291,3.0,5.0,38,0.00,,BKN250,0.04,VWS V14.01,2013-03-21 21:30:00,
2013-03-21 17:40:00,35.2,12.1,29.61,WNW,287,1.0,7.0,38,0.00,,BKN250,0.04,VWS V14.01,2013-03-21 21:40:00,
2013-03-21 17:50:00,35.4,12.3,29.61,NW,310,1.0,5.0,38,0.00,,BKN250,0.04,VWS V14.01,2013-03-21 21:50:00,
2013-03-21 18:00:00,35.0,12.6,29.60,WNW,301,2.0,7.0,39,0.00,,BKN250,0.04,VWS V14.01,2013-03-21 22:00:00,
2013-03-21 18:10:00,34.7,11.7,29.61,NNW,338,5.0,7.0,38,0.00,,BKN090,0.04,VWS V14.01,2013-03-21 22:10:00,
2013-03-21 18:20:00,34.0,12.2,29.61,WNW,295,3.0,8.0,40,0.00,,BKN090,0.04,VWS V14.01,2013-03-21 22:20:00,
2013-03-21 18:30:00,33.6,11.9,29.61,NW,308,1.0,8.0,40,0.00,,BKN090,0.04,VWS V14.01,2013-03-21 22:30:00,
2013-03-21 18:40:00,33.5,12.3,29.61,WNW,297,4.0,5.0,41,0.00,,BKN090,0.04,VWS V14.01,2013-03-21 22:40:00,
2013-03-21 18:50:00,33.1,12.5,29.62,NW,316,6.0,8.0,42,0.00,,BKN090,0.04,VWS V14.01,2013-03-21 22:50:00,
2013-03-21 19:00:00,32.5,12.5,29.62,WNW,290,5.0,9.0,43,0.00,,BKN090,0.04,VWS V14.01,2013-03-21 23:00:00,
2013-03-21 19:10:00,32.0,13.6,29.63,NW,309,6.0,7.0,46,0.00,,BKN240,0.04,VWS V14.01,2013-03-21 23:10:00,
2013-03-21 19:20:00,31.6,12.7,29.63,WNW,293,4.0,8.0,45,0.00,,BKN240,0.04,VWS V14.01,2013-03-21 23:20:00,
2013-03-21 19:30:00,31.2,12.8,29.63,NW,312,4.0,8.0,46,0.00,,BKN240,0.04,VWS V14.01,2013-03-21 23:30:00,
2013-03-21 19:40:00,30.8,12.5,29.63,NW,311,2.0,8.0,46,0.00,,BKN240,0.04,VWS V14.01,2013-03-21 23:40:00,
2013-03-21 19:50:00,30.5,13.2,29.63,NW,317,4.0,7.0,48,0.00,,BKN240,0.04,VWS V14.01,2013-03-21 23:50:00,
2013-03-21 20:00:00,30.4,12.6,29.64,NW,304,4.0,9.0,47,0.00,,BKN240,0.04,VWS V14.01,2013-03-22 00:00:00,
2013-03-21 20:10:00,30.2,12.4,29.64,WNW,300,2.0,6.0,47,0.00,,BKN240,0.04,VWS V14.01,2013-03-22 00:10:00,
2013-03-21 20:20:00,29.9,13.1,29.64,NW,308,1.0,7.0,49,0.00,,BKN240,0.04,VWS V14.01,2013-03-22 00:20:00,
2013-03-21 20:30:00,29.7,12.9,29.65,NW,309,2.0,5.0,49,0.00,,BKN240,0.04,VWS V14.01,2013-03-22 00:30:00,
2013-03-21 20:40:00,29.6,12.3,29.65,WNW,302,1.0,7.0,48,0.00,,BKN240,0.04,VWS V14.01,2013-03-22 00:40:00,
2013-03-21 20:50:00,29.4,12.6,29.65,NW,309,2.0,4.0,49,0.00,,BKN240,0.04,VWS V14.01,2013-03-22 00:50:00,
2013-03-21 21:00:00,29.2,12.0,29.65,NW,312,2.0,6.0,48,0.00,,BKN240,0.04,VWS V14.01,2013-03-22 01:00:00,
2013-03-21 21:10:00,29.1,12.3,29.65,NW,307,1.0,5.0,49,0.00,,BKN180,0.04,VWS V14.01,2013-03-22 01:10:00,
2013-03-21 21:20:00,28.9,12.1,29.66,NW,320,4.0,5.0,49,0.00,,BKN180,0.04,VWS V14.01,2013-03-22 01:20:00,
2013-03-21 21:30:00,28.8,11.6,29.66,NW,323,3.0,7.0,48,0.00,,BKN180,0.04,VWS V14.01,2013-03-22 01:30:00,
2013-03-21 21:40:00,28.6,11.9,29.66,North,7,1.0,8.0,49,0.00,,BKN180,0.04,VWS V14.01,2013-03-22 01:40:00,
2013-03-21 21:50:00,28.3,11.1,29.66,West,277,5.0,7.0,48,0.00,,BKN180,0.04,VWS V14.01,2013-03-22 01:50:00,
2013-03-21 22:00:00,28.1,10.9,29.66,WNW,301,2.0,8.0,48,0.00,,BKN180,0.04,VWS V14.01,2013-03-22 02:00:00,
2013-03-21 22:10:00,27.9,11.2,29.66,West,281,4.0,10.0,49,0.00,,BKN075,0.04,VWS V14.01,2013-03-22 02:10:00,
2013-03-21 22:20:00,27.7,11.0,29.66,NW,325,6.0,9.0,49,0.00,,BKN075,0.04,VWS V14.01,2013-03-22 02:20:00,
2013-03-21 22:30:00,27.4,11.2,29.66,NW,314,3.0,9.0,50,0.00,,BKN075,0.04,VWS V14.01,2013-03-22 02:30:00,
2013-03-21 22:40:00,27.2,11.5,29.66,NW,305,2.0,8.0,51,0.00,,BKN075,0.04,VWS V14.01,2013-03-22 02:40:00,
2013-03-21 22:50:00,26.9,11.6,29.67,WNW,290,1.0,7.0,52,0.00,,BKN075,0.04,VWS V14.01,2013-03-22 02:50:00,
2013-03-21 23:00:00,26.7,11.9,29.67,WSW,253,1.0,7.0,53,0.00,,BKN075,0.04,VWS V14.01,2013-03-22 03:00:00,
2013-03-21 23:10:00,26.4,11.6,29.67,NW,309,5.0,5.0,53,0.00,,BKN085,0.04,VWS V14.01,2013-03-22 03:10:00,
2013-03-21 23:20:00,26.2,11.8,29.67,WNW,300,4.0,6.0,54,0.00,,BKN085,0.04,VWS V14.01,2013-03-22 03:20:00,
2013-03-21 23:30:00,26.0,12.1,29.68,West,274,1.0,6.0,55,0.00,,BKN085,0.04,VWS V14.01,2013-03-22 03:30:00,
2013-03-21 23:40:00,25.8,12.3,29.67,NW,315,1.0,6.0,56,0.00,,BKN085,0.04,VWS V14.01,2013-03-22 03:40:00,
2013-03-21 23:50:00,25.6,12.5,29.68,NW,307,4.0,8.0,57,0.00,,BKN085,0.04,VWS V14.01,2013-03-22 03:50:00,